createdAt,value
2022-08-25T00:02:09.932Z,22.06
2022-08-25T00:04:38.199Z,22.49
2022-08-25T00:07:08.075Z,22.75
2022-08-25T00:09:37.182Z,22.62
2022-08-25T00:12:07.225Z,22.73
2022-08-25T00:14:38.338Z,22.90
2022-08-25T00:17:08.217Z,22.95
2022-08-25T00:19:38.976Z,22.76
2022-08-25T00:22:08.189Z,22.53
2022-08-25T00:24:37.121Z,22.66
2022-08-25T00:27:06.349Z,22.79
2022-08-25T00:29:37.970Z,23.10
2022-08-25T00:32:07.804Z,22.72
2022-08-25T00:34:39.589Z,22.25
2022-08-25T00:37:10.132Z,21.66
2022-08-25T00:39:40.120Z,22.13
2022-08-25T00:42:11.847Z,22.45
2022-08-25T00:44:44.785Z,21.91
2022-08-25T00:47:14.512Z,21.83
2022-08-25T00:49:48.924Z,22.05
2022-08-25T00:52:23.011Z,22.36
2022-08-25T00:54:56.919Z,22.82
2022-08-25T00:57:34.633Z,22.14
2022-08-25T01:00:07.397Z,22.11
2022-08-25T01:02:36.583Z,22.47
2022-08-25T01:05:05.487Z,21.85
2022-08-25T01:07:33.460Z,21.91
2022-08-25T01:10:03.010Z,22.14
2022-08-25T01:12:31.006Z,22.51
2022-08-25T01:14:59.690Z,22.71
2022-08-25T01:17:36.004Z,22.67
2022-08-25T01:20:05.552Z,22.10
2022-08-25T01:22:34.745Z,22.02
2022-08-25T01:25:14.323Z,22.13
2022-08-25T01:27:42.165Z,21.99
2022-08-25T01:30:11.153Z,21.66
2022-08-25T01:32:38.949Z,21.54
2022-08-25T01:35:08.339Z,22.05
2022-08-25T01:37:37.918Z,22.51
2022-08-25T01:40:07.190Z,22.21
2022-08-25T01:42:58.588Z,21.97
2022-08-25T01:45:27.182Z,22.19
2022-08-25T01:47:56.841Z,21.92
2022-08-25T01:50:24.961Z,21.88
2022-08-25T01:53:00.072Z,22.12
2022-08-25T01:55:28.736Z,22.05
2022-08-25T01:57:57.239Z,21.39
2022-08-25T02:00:26.100Z,20.85
2022-08-25T02:02:55.443Z,20.90
2022-08-25T02:05:23.980Z,21.08
2022-08-25T02:07:52.051Z,21.41
2022-08-25T02:10:21.329Z,21.63
2022-08-25T02:12:51.742Z,21.50
2022-08-25T02:15:22.562Z,21.45
2022-08-25T02:17:50.434Z,21.54
2022-08-25T02:20:19.008Z,21.71
2022-08-25T02:22:56.501Z,22.04
2022-08-25T02:25:26.925Z,21.57
2022-08-25T02:27:55.336Z,21.11
2022-08-25T02:30:23.624Z,21.73
2022-08-25T02:32:52.060Z,21.46
2022-08-25T02:35:21.162Z,21.54
2022-08-25T02:37:49.033Z,21.48
2022-08-25T02:40:17.303Z,21.45
2022-08-25T02:42:46.504Z,21.19
2022-08-25T02:45:14.401Z,20.85
2022-08-25T02:47:42.742Z,21.19
2022-08-25T02:50:11.608Z,21.36
2022-08-25T02:52:41.145Z,20.86
2022-08-25T02:55:14.075Z,20.28
2022-08-25T02:57:42.823Z,20.25
2022-08-25T03:00:15.803Z,19.96
2022-08-25T03:02:46.788Z,19.90
2022-08-25T03:05:16.655Z,20.12
2022-08-25T03:07:44.601Z,20.30
2022-08-25T03:10:18.383Z,20.51
2022-08-25T03:12:46.493Z,20.47
2022-08-25T03:15:18.802Z,20.40
2022-08-25T03:17:49.395Z,20.52
2022-08-25T03:20:20.349Z,20.54
2022-08-25T03:22:48.851Z,20.90
2022-08-25T03:25:36.037Z,21.18
2022-08-25T03:28:05.207Z,21.54
2022-08-25T03:30:35.256Z,21.49
2022-08-25T03:33:03.367Z,20.62
2022-08-25T03:35:31.226Z,20.59
2022-08-25T03:38:02.105Z,20.58
2022-08-25T03:40:30.628Z,20.97
2022-08-25T03:42:58.502Z,20.86
2022-08-25T03:45:26.991Z,21.19
2022-08-25T03:47:56.718Z,20.99
2022-08-25T03:50:25.788Z,20.67
2022-08-25T03:52:56.277Z,21.43
2022-08-25T03:55:26.712Z,20.69
2022-08-25T03:57:57.384Z,20.89
2022-08-25T04:00:25.370Z,21.48
2022-08-25T04:02:53.278Z,20.77
2022-08-25T04:05:22.677Z,20.99
2022-08-25T04:07:54.829Z,20.19
2022-08-25T04:10:23.307Z,20.11
2022-08-25T04:12:51.131Z,20.19
2022-08-25T04:15:19.477Z,19.92
2022-08-25T04:17:47.321Z,19.93
2022-08-25T04:20:18.885Z,20.42
2022-08-25T04:22:48.164Z,20.74
2022-08-25T04:25:16.084Z,20.64
2022-08-25T04:27:44.020Z,21.11
2022-08-25T04:30:14.001Z,20.66
2022-08-25T04:32:41.886Z,20.86
2022-08-25T04:35:11.096Z,20.49
2022-08-25T04:37:38.955Z,20.37
2022-08-25T04:40:10.495Z,20.41
2022-08-25T04:42:39.340Z,20.65
2022-08-25T04:45:08.602Z,20.85
2022-08-25T04:47:39.388Z,20.77
2022-08-25T04:50:08.882Z,20.32
2022-08-25T04:52:37.846Z,20.29
2022-08-25T04:55:06.316Z,20.58
2022-08-25T04:57:35.836Z,20.75
2022-08-25T05:00:05.717Z,20.64
2022-08-25T05:02:33.516Z,20.48
2022-08-25T05:05:02.755Z,20.32
2022-08-25T05:07:30.908Z,20.60
2022-08-25T05:09:58.847Z,21.34
2022-08-25T05:12:26.648Z,21.28
2022-08-25T05:15:18.836Z,20.57
2022-08-25T05:17:46.627Z,20.24
2022-08-25T05:20:14.546Z,20.64
2022-08-25T05:22:46.952Z,20.48
2022-08-25T05:25:15.778Z,20.13
2022-08-25T05:27:44.293Z,20.55
2022-08-25T05:30:13.908Z,20.86
2022-08-25T05:32:41.753Z,20.92
2022-08-25T05:35:10.264Z,21.11
2022-08-25T05:37:38.551Z,20.69
2022-08-25T05:40:08.278Z,21.10
2022-08-25T05:42:37.314Z,20.95
2022-08-25T05:45:06.590Z,20.96
2022-08-25T05:47:35.997Z,20.78
2022-08-25T05:50:04.597Z,20.99
2022-08-25T05:52:32.955Z,20.49
2022-08-25T05:55:00.741Z,20.46
2022-08-25T05:57:28.553Z,20.99
2022-08-25T05:59:56.404Z,20.49
2022-08-25T06:02:41.566Z,20.58
2022-08-25T06:05:13.594Z,20.59
2022-08-25T06:07:41.579Z,20.55
2022-08-25T06:10:13.391Z,20.34
2022-08-25T06:12:45.332Z,20.70
2022-08-25T06:15:15.623Z,20.40
2022-08-25T06:17:44.335Z,20.29
2022-08-25T06:20:17.212Z,20.51
2022-08-25T06:22:45.878Z,20.69
2022-08-25T06:25:20.825Z,20.78
2022-08-25T06:27:49.257Z,20.10
2022-08-25T06:30:28.416Z,20.22
2022-08-25T06:32:56.965Z,19.91
2022-08-25T06:35:26.160Z,20.52
2022-08-25T06:37:54.748Z,21.02
2022-08-25T06:40:23.114Z,20.86
2022-08-25T06:42:50.955Z,20.74
2022-08-25T06:45:19.425Z,20.83
2022-08-25T06:47:47.337Z,20.60
2022-08-25T06:50:15.580Z,20.79
2022-08-25T06:52:44.780Z,21.02
2022-08-25T06:55:13.065Z,20.74
2022-08-25T06:57:40.896Z,21.22
2022-08-25T07:00:12.335Z,21.27
2022-08-25T07:02:40.749Z,22.01
2022-08-25T07:05:13.272Z,21.49
2022-08-25T07:07:44.039Z,21.43
2022-08-25T07:10:14.309Z,20.59
2022-08-25T07:12:47.280Z,21.11
2022-08-25T07:15:20.366Z,21.02
2022-08-25T07:17:49.636Z,21.14
2022-08-25T07:20:19.350Z,21.01
2022-08-25T07:22:49.040Z,21.71
2022-08-25T07:25:18.436Z,21.83
2022-08-25T07:27:46.952Z,21.65
2022-08-25T07:30:15.224Z,21.62
2022-08-25T07:32:43.354Z,21.49
2022-08-25T07:35:18.835Z,21.58
2022-08-25T07:37:50.961Z,21.67
2022-08-25T07:40:24.201Z,21.70
2022-08-25T07:42:54.866Z,21.92
2022-08-25T07:45:30.397Z,22.09
2022-08-25T07:47:59.571Z,22.17
2022-08-25T07:50:29.540Z,22.10
2022-08-25T07:52:58.743Z,22.13
2022-08-25T07:55:30.435Z,22.49
2022-08-25T07:58:00.479Z,22.39
2022-08-25T08:00:32.630Z,22.18
2022-08-25T08:03:03.875Z,22.32
2022-08-25T08:05:33.543Z,21.81
2022-08-25T08:08:02.603Z,21.86
2022-08-25T08:13:20.400Z,22.34
2022-08-25T08:15:49.054Z,22.12
2022-08-25T08:18:17.549Z,22.09
2022-08-25T08:20:48.473Z,22.57
2022-08-25T08:23:17.942Z,22.45
2022-08-25T08:25:47.973Z,22.92
2022-08-25T08:28:15.789Z,22.48
2022-08-25T08:30:52.980Z,22.58
2022-08-25T08:33:24.457Z,23.02
2022-08-25T08:35:59.103Z,23.13
2022-08-25T08:38:27.413Z,23.38
2022-08-25T08:41:48.908Z,23.54
2022-08-25T08:44:35.133Z,23.70
2022-08-25T08:47:12.619Z,24.21
2022-08-25T08:49:50.866Z,24.38
2022-08-25T08:52:25.519Z,24.46
2022-08-25T08:55:05.773Z,24.77
2022-08-25T08:57:44.209Z,23.40
2022-08-25T09:00:14.350Z,23.16
2022-08-25T09:02:52.335Z,23.48
2022-08-25T09:05:24.143Z,24.14
2022-08-25T09:07:57.927Z,24.10
2022-08-25T09:10:35.618Z,24.31
2022-08-25T09:13:26.156Z,24.81
2022-08-25T09:16:31.816Z,24.32
2022-08-25T09:19:23.750Z,24.70
2022-08-25T09:22:00.839Z,24.89
2022-08-25T09:24:50.134Z,24.32
2022-08-25T09:27:33.257Z,24.47
2022-08-25T09:30:08.360Z,24.89
2022-08-25T09:32:48.841Z,24.01
2022-08-25T09:35:27.280Z,24.03
2022-08-25T09:38:00.795Z,24.06
2022-08-25T09:40:31.545Z,24.65
2022-08-25T09:43:03.032Z,23.75
2022-08-25T09:45:43.453Z,23.77
2022-08-25T09:48:39.733Z,23.90
2022-08-25T09:51:19.863Z,23.67
2022-08-25T09:53:55.599Z,24.37
2022-08-25T09:56:27.491Z,24.21
2022-08-25T09:59:02.419Z,24.36
2022-08-25T10:01:34.850Z,24.43
2022-08-25T10:04:06.842Z,24.41
2022-08-25T10:06:49.004Z,24.81
2022-08-25T10:09:34.450Z,24.92
2022-08-25T10:12:04.950Z,25.21
2022-08-25T10:14:38.830Z,23.96
2022-08-25T10:17:24.681Z,24.92
2022-08-25T10:20:15.223Z,24.86
2022-08-25T10:22:45.564Z,24.78
2022-08-25T10:25:21.848Z,24.41
2022-08-25T10:28:05.854Z,24.70
2022-08-25T10:30:50.604Z,25.23
2022-08-25T10:33:37.119Z,26.05
2022-08-25T10:36:14.705Z,25.50
2022-08-25T10:38:46.885Z,24.69
2022-08-25T10:41:45.588Z,25.13
2022-08-25T10:44:43.078Z,24.53
2022-08-25T10:47:52.014Z,25.14
2022-08-25T10:50:30.810Z,25.03
2022-08-25T10:53:19.070Z,25.09
2022-08-25T10:56:04.543Z,24.93
2022-08-25T10:59:25.932Z,24.74
2022-08-25T11:02:51.091Z,25.69
2022-08-25T11:05:29.161Z,25.83
2022-08-25T11:08:09.255Z,26.65
2022-08-25T11:10:48.479Z,26.50
2022-08-25T11:13:32.653Z,25.79
2022-08-25T11:16:17.419Z,25.70
2022-08-25T11:18:56.908Z,25.39
2022-08-25T11:21:36.994Z,25.29
2022-08-25T11:24:22.679Z,25.28
2022-08-25T11:26:57.720Z,25.83
2022-08-25T11:29:32.670Z,26.36
2022-08-25T11:32:02.134Z,26.86
2022-08-25T11:34:34.695Z,26.22
2022-08-25T11:37:20.502Z,25.97
2022-08-25T11:40:15.600Z,26.06
2022-08-25T11:43:01.815Z,26.63
2022-08-25T11:45:57.837Z,27.02
2022-08-25T11:48:54.644Z,27.47
2022-08-25T11:51:33.935Z,27.02
2022-08-25T11:54:24.834Z,27.08
2022-08-25T11:57:00.731Z,26.79
2022-08-25T12:00:07.144Z,26.90
2022-08-25T12:02:40.128Z,26.46
2022-08-25T12:05:32.361Z,26.64
2022-08-25T12:08:24.020Z,27.71
2022-08-25T12:11:01.360Z,27.13
2022-08-25T12:13:48.402Z,27.13
2022-08-25T12:17:01.179Z,27.02
2022-08-25T12:19:49.717Z,27.23
2022-08-25T12:22:51.575Z,27.39
2022-08-25T12:26:04.123Z,27.61
2022-08-25T12:28:53.873Z,27.47
2022-08-25T12:31:52.840Z,27.67
2022-08-25T12:34:46.231Z,27.80
2022-08-25T12:37:18.601Z,27.47
2022-08-25T12:39:58.964Z,27.03
2022-08-25T12:42:36.062Z,27.31
2022-08-25T12:45:32.307Z,27.27
2022-08-25T12:48:57.134Z,27.40
2022-08-25T12:51:27.717Z,27.97
2022-08-25T12:54:12.281Z,27.02
2022-08-25T12:56:47.983Z,27.06
2022-08-25T12:59:21.910Z,26.96
2022-08-25T13:02:13.924Z,27.51
2022-08-25T13:05:11.757Z,27.99
2022-08-25T13:08:15.102Z,27.93
2022-08-25T13:10:50.905Z,27.32
2022-08-25T13:13:48.040Z,27.17
2022-08-25T13:16:26.951Z,27.26
2022-08-25T13:19:01.427Z,27.57
2022-08-25T13:21:41.496Z,27.95
2022-08-25T13:24:20.989Z,27.82
2022-08-25T13:26:54.845Z,27.52
2022-08-25T13:29:26.269Z,27.90
2022-08-25T13:31:59.630Z,27.36
2022-08-25T13:34:34.809Z,27.91
2022-08-25T13:37:26.698Z,27.87
2022-08-25T13:40:10.934Z,27.68
2022-08-25T13:42:42.495Z,28.04
2022-08-25T13:45:19.903Z,27.68
2022-08-25T13:47:56.058Z,28.15
2022-08-25T13:50:34.666Z,28.73
2022-08-25T13:53:12.180Z,28.93
2022-08-25T13:55:52.160Z,28.07
2022-08-25T13:58:38.911Z,28.55
2022-08-25T14:01:23.687Z,28.73
2022-08-25T14:04:29.507Z,28.32
2022-08-25T14:07:26.833Z,28.13
2022-08-25T14:10:05.364Z,27.54
2022-08-25T14:12:42.264Z,27.75
2022-08-25T14:15:33.370Z,27.93
2022-08-25T14:18:07.343Z,27.64
2022-08-25T14:20:43.602Z,28.09
2022-08-25T14:23:19.028Z,27.93
2022-08-25T14:25:47.930Z,27.87
2022-08-25T14:28:20.623Z,27.82
2022-08-25T14:30:54.551Z,27.64
2022-08-25T14:33:28.414Z,28.34
2022-08-25T14:36:02.775Z,28.66
2022-08-25T14:38:30.597Z,28.82
2022-08-25T14:40:59.266Z,28.90
2022-08-25T14:43:32.059Z,29.17
2022-08-25T14:46:03.995Z,28.53
2022-08-25T14:48:40.196Z,27.97
2022-08-25T14:51:14.321Z,27.99
2022-08-25T14:53:44.426Z,27.98
2022-08-25T14:56:14.215Z,27.55
2022-08-25T14:58:51.582Z,27.72
2022-08-25T15:01:29.168Z,27.81
2022-08-25T15:04:06.043Z,28.03
2022-08-25T15:06:37.647Z,28.29
2022-08-25T15:09:11.554Z,28.13
2022-08-25T15:11:43.417Z,27.81
2022-08-25T15:14:15.530Z,27.82
2022-08-25T15:16:49.355Z,28.07
2022-08-25T15:19:20.780Z,28.25
2022-08-25T15:21:51.179Z,28.24
2022-08-25T15:24:22.511Z,28.48
2022-08-25T15:29:31.151Z,28.21
2022-08-25T15:32:01.649Z,28.32
2022-08-25T15:34:30.133Z,27.98
2022-08-25T15:37:01.009Z,27.92
2022-08-25T15:39:30.878Z,27.89
2022-08-25T15:41:58.894Z,28.09
2022-08-25T15:44:29.693Z,27.84
2022-08-25T15:46:59.264Z,28.13
2022-08-25T15:49:31.315Z,28.24
2022-08-25T15:52:01.457Z,27.97
2022-08-25T15:54:31.146Z,28.44
2022-08-25T15:56:59.938Z,28.27
2022-08-25T15:59:29.417Z,28.15
2022-08-25T16:01:57.959Z,27.93
2022-08-25T16:04:28.746Z,27.90
2022-08-25T16:06:56.848Z,28.30
2022-08-25T16:09:27.965Z,28.15
2022-08-25T16:12:02.658Z,28.25
2022-08-25T16:14:33.414Z,27.91
2022-08-25T16:17:01.299Z,27.79
2022-08-25T16:19:30.059Z,28.27
2022-08-25T16:21:59.178Z,27.97
2022-08-25T16:24:29.264Z,27.85
2022-08-25T16:27:11.628Z,27.83
2022-08-25T16:29:41.644Z,28.25
2022-08-25T16:32:10.797Z,27.99
2022-08-25T16:34:39.439Z,27.78
2022-08-25T16:37:08.570Z,27.62
2022-08-25T16:39:43.980Z,27.88
2022-08-25T16:42:12.243Z,28.70
2022-08-25T16:44:40.368Z,28.31
2022-08-25T16:47:08.974Z,28.24
2022-08-25T16:49:37.133Z,27.79
2022-08-25T16:52:28.390Z,27.96
2022-08-25T16:55:12.435Z,27.58
2022-08-25T16:57:42.704Z,27.88
2022-08-25T17:00:15.523Z,27.85
2022-08-25T17:02:43.994Z,27.94
2022-08-25T17:05:13.418Z,27.47
2022-08-25T17:07:41.408Z,28.31
2022-08-25T17:10:12.742Z,27.75
2022-08-25T17:12:40.837Z,27.71
2022-08-25T17:15:09.574Z,27.54
2022-08-25T17:17:37.581Z,27.30
2022-08-25T17:20:06.194Z,27.82
2022-08-25T17:22:34.325Z,27.70
2022-08-25T17:25:03.039Z,27.40
2022-08-25T17:27:36.254Z,27.49
2022-08-25T17:30:04.718Z,27.29
2022-08-25T17:32:32.638Z,27.36
2022-08-25T17:35:00.671Z,27.17
2022-08-25T17:37:32.249Z,27.32
2022-08-25T17:40:03.237Z,27.21
2022-08-25T17:42:32.488Z,27.49
2022-08-25T17:45:01.952Z,27.25
2022-08-25T17:47:29.891Z,27.72
2022-08-25T17:49:57.746Z,27.71
2022-08-25T17:52:25.770Z,27.89
2022-08-25T17:54:53.754Z,27.57
2022-08-25T17:57:22.083Z,27.31
2022-08-25T17:59:49.917Z,26.99
2022-08-25T18:02:19.252Z,27.34
2022-08-25T18:04:47.208Z,26.96
2022-08-25T18:07:15.066Z,27.13
2022-08-25T18:09:44.080Z,27.25
2022-08-25T18:12:12.925Z,27.30
2022-08-25T18:14:45.924Z,27.11
2022-08-25T18:17:14.109Z,26.82
2022-08-25T18:19:51.084Z,27.37
2022-08-25T18:22:19.075Z,26.97
2022-08-25T18:24:47.340Z,27.42
2022-08-25T18:27:16.251Z,26.61
2022-08-25T18:29:44.292Z,26.86
2022-08-25T18:32:12.354Z,27.12
2022-08-25T18:34:40.357Z,27.21
2022-08-25T18:37:23.570Z,27.22
2022-08-25T18:40:08.921Z,26.93
2022-08-25T18:42:37.008Z,27.25
2022-08-25T18:45:07.428Z,27.12
2022-08-25T18:47:40.861Z,27.27
2022-08-25T18:50:10.389Z,26.94
2022-08-25T18:52:39.778Z,27.25
2022-08-25T18:55:09.213Z,27.55
2022-08-25T18:57:41.562Z,27.00
2022-08-25T19:00:15.941Z,26.67
2022-08-25T19:02:47.021Z,26.77
2022-08-25T19:05:15.761Z,27.05
2022-08-25T19:07:51.658Z,27.18
2022-08-25T19:10:20.825Z,26.87
2022-08-25T19:12:52.304Z,26.78
2022-08-25T19:15:24.873Z,26.95
2022-08-25T19:17:54.006Z,27.02
2022-08-25T19:20:24.433Z,26.88
2022-08-25T19:22:54.265Z,26.73
2022-08-25T19:25:23.176Z,26.99
2022-08-25T19:27:52.282Z,27.25
2022-08-25T19:30:23.702Z,26.98
2022-08-25T19:32:52.693Z,27.01
2022-08-25T19:35:31.765Z,26.78
2022-08-25T19:38:03.493Z,26.83
2022-08-25T19:40:37.749Z,27.12
2022-08-25T19:43:08.621Z,27.20
2022-08-25T19:45:37.911Z,27.14
2022-08-25T19:48:07.757Z,26.97
2022-08-25T19:50:36.244Z,26.74
2022-08-25T19:53:05.962Z,26.59
2022-08-25T19:55:34.075Z,26.73
2022-08-25T19:58:02.078Z,26.87
2022-08-25T20:00:38.811Z,26.98
2022-08-25T20:03:08.820Z,26.96
2022-08-25T20:05:38.406Z,27.07
2022-08-25T20:08:07.720Z,26.98
2022-08-25T20:10:41.644Z,27.18
2022-08-25T20:13:10.505Z,27.11
2022-08-25T20:15:39.189Z,26.84
2022-08-25T20:18:08.462Z,27.05
2022-08-25T20:20:36.825Z,26.96
2022-08-25T20:23:25.175Z,26.96
2022-08-25T20:25:57.070Z,26.85
2022-08-25T20:28:25.372Z,26.97
2022-08-25T20:30:53.248Z,27.10
2022-08-25T20:33:23.150Z,26.95
2022-08-25T20:35:54.143Z,26.84
2022-08-25T20:38:24.066Z,26.87
2022-08-25T20:40:51.924Z,26.87
2022-08-25T20:43:21.144Z,26.74
2022-08-25T20:45:49.119Z,26.71
2022-08-25T20:48:20.513Z,26.71
2022-08-25T20:50:57.199Z,26.76
2022-08-25T20:53:26.167Z,26.54
2022-08-25T20:55:54.013Z,26.71
2022-08-25T20:58:23.174Z,26.61
2022-08-25T21:00:51.549Z,26.46
2022-08-25T21:03:20.830Z,26.61
2022-08-25T21:05:49.002Z,26.08
2022-08-25T21:08:22.049Z,26.25
2022-08-25T21:10:54.886Z,26.18
2022-08-25T21:13:26.059Z,26.21
2022-08-25T21:15:54.358Z,26.01
2022-08-25T21:18:22.280Z,25.97
2022-08-25T21:20:50.110Z,26.04
2022-08-25T21:23:17.974Z,25.72
2022-08-25T21:25:45.884Z,25.92
2022-08-25T21:28:14.672Z,25.81
2022-08-25T21:30:47.403Z,25.61
2022-08-25T21:33:15.412Z,25.55
2022-08-25T21:35:43.788Z,25.58
2022-08-25T21:38:11.738Z,25.68
2022-08-25T21:40:39.783Z,25.52
2022-08-25T21:43:12.761Z,25.70
2022-08-25T21:45:46.133Z,25.67
2022-08-25T21:48:16.626Z,25.46
2022-08-25T21:50:44.487Z,25.23
2022-08-25T21:53:12.873Z,25.11
2022-08-25T21:55:44.055Z,25.08
2022-08-25T21:58:13.037Z,25.14
2022-08-25T22:00:41.697Z,25.20
2022-08-25T22:03:09.521Z,24.93
2022-08-25T22:05:39.340Z,24.68
2022-08-25T22:08:08.470Z,24.94
2022-08-25T22:10:36.312Z,24.75
2022-08-25T22:13:05.479Z,25.09
2022-08-25T22:15:33.388Z,24.82
2022-08-25T22:18:01.354Z,25.33
2022-08-25T22:20:29.485Z,24.90
2022-08-25T22:23:00.158Z,25.04
2022-08-25T22:25:28.139Z,25.10
2022-08-25T22:27:57.157Z,25.09
2022-08-25T22:30:25.362Z,24.70
2022-08-25T22:32:58.345Z,25.00
2022-08-25T22:35:26.790Z,24.90
2022-08-25T22:37:54.845Z,25.35
2022-08-25T22:40:24.494Z,24.72
2022-08-25T22:42:53.289Z,24.55
2022-08-25T22:45:21.456Z,25.43
2022-08-25T22:47:49.422Z,24.87
2022-08-25T22:50:17.433Z,24.64
2022-08-25T22:52:47.568Z,24.95
2022-08-25T22:55:16.254Z,24.76
2022-08-25T22:57:45.907Z,24.73
2022-08-25T23:00:17.437Z,24.82
2022-08-25T23:02:47.551Z,25.01
2022-08-25T23:05:16.388Z,24.64
2022-08-25T23:07:44.560Z,24.40
2022-08-25T23:10:15.110Z,24.13
2022-08-25T23:12:44.621Z,24.29
2022-08-25T23:15:14.454Z,24.39
2022-08-25T23:17:42.507Z,25.03
2022-08-25T23:20:25.296Z,24.73
2022-08-25T23:22:54.213Z,24.70
2022-08-25T23:25:23.375Z,24.54
2022-08-25T23:27:52.656Z,24.58
2022-08-25T23:30:21.451Z,25.03
2022-08-25T23:32:49.437Z,24.33
2022-08-25T23:35:18.148Z,24.41
2022-08-25T23:37:47.340Z,24.51
2022-08-25T23:40:19.190Z,24.22
2022-08-25T23:42:47.650Z,24.45
2022-08-25T23:45:18.050Z,24.66
2022-08-25T23:47:45.855Z,24.72
2022-08-25T23:50:14.044Z,24.28
2022-08-25T23:52:41.914Z,24.17
2022-08-25T23:55:10.616Z,24.55
2022-08-25T23:57:38.507Z,24.05
